Time;durP1;ratioP1;P1;durP2;ratioP2;P2;SDS_P1;SDS_P2;PMS_P1;PMS_P2;Temp;Humidity;BMP_temperature;BMP_pressure;BME280_temperature;BME280_humidity;BME280_pressure;Samples;Min_cycle;Max_cycle;Signal;HPM_P1;HPM_P2
2023/02/24 00:02:55;;;;;;;64.32;36.72;;;;;;;4.68;100.00;100659.38;4985775;28;20752;-72
2023/02/24 00:05:22;;;;;;;70.85;37.17;;;;;;;4.65;100.00;100653.50;4988924;28;20049;-73
2023/02/24 00:07:49;;;;;;;66.78;37.30;;;;;;;4.65;100.00;100647.50;4981166;28;20050;-73
2023/02/24 00:10:18;;;;;;;76.65;40.10;;;;;;;4.64;100.00;100656.19;4986927;28;20097;-73
2023/02/24 00:12:48;;;;;;;70.30;38.20;;;;;;;4.60;100.00;100652.97;4987109;28;20082;-73
2023/02/24 00:15:14;;;;;;;68.60;37.33;;;;;;;4.56;100.00;100648.94;4987321;28;20042;-73
2023/02/24 00:17:44;;;;;;;63.97;35.60;;;;;;;4.53;100.00;100650.91;4985713;28;20086;-73
2023/02/24 00:20:21;;;;;;;61.35;33.85;;;;;;;4.47;100.00;100644.38;4985069;28;20108;-73
2023/02/24 00:22:47;;;;;;;67.75;35.63;;;;;;;4.42;100.00;100653.34;4986943;28;20121;-73
2023/02/24 00:25:13;;;;;;;65.68;36.15;;;;;;;4.40;100.00;100643.13;4980096;28;20049;-73
2023/02/24 00:27:39;;;;;;;62.47;35.55;;;;;;;4.36;100.00;100638.28;4990763;28;20046;-73
2023/02/24 00:30:05;;;;;;;70.25;37.85;;;;;;;4.35;100.00;100642.59;4989771;28;20053;-73
2023/02/24 00:32:31;;;;;;;69.70;37.65;;;;;;;4.35;100.00;100642.59;4986578;28;20042;-73
2023/02/24 00:34:57;;;;;;;65.07;38.00;;;;;;;4.36;100.00;100643.44;4985801;28;20049;-73
2023/02/24 00:37:23;;;;;;;70.93;38.53;;;;;;;4.40;100.00;100644.88;4989715;28;20038;-73
2023/02/24 00:39:50;;;;;;;67.07;36.97;;;;;;;4.38;100.00;100637.25;5012393;28;20040;-73
2023/02/24 00:42:16;;;;;;;73.15;36.75;;;;;;;4.33;100.00;100639.28;5056777;28;20029;-73
2023/02/24 00:44:46;;;;;;;66.10;35.92;;;;;;;4.32;100.00;100632.47;5068137;28;20142;-73
2023/02/24 00:47:15;;;;;;;69.90;38.00;;;;;;;4.26;100.00;100636.28;5062310;28;20456;-73
2023/02/24 00:49:43;;;;;;;70.50;38.50;;;;;;;4.25;100.00;100639.78;5066815;28;20115;-73
2023/02/24 00:52:19;;;;;;;69.00;35.95;;;;;;;4.25;100.00;100637.22;5064325;28;20041;-73
2023/02/24 00:54:48;;;;;;;73.30;37.08;;;;;;;4.22;100.00;100639.19;5041696;28;20064;-73
2023/02/24 00:57:17;;;;;;;71.57;35.05;;;;;;;4.20;100.00;100643.63;5068151;28;20055;-73
2023/02/24 00:59:46;;;;;;;69.15;35.35;;;;;;;4.19;100.00;100636.81;5048169;28;20438;-73
2023/02/24 01:02:12;;;;;;;65.75;34.60;;;;;;;4.17;100.00;100639.50;5050316;28;20047;-73
2023/02/24 01:04:38;;;;;;;69.78;35.30;;;;;;;4.13;100.00;100634.63;5061537;28;20020;-73
2023/02/24 01:07:09;;;;;;;68.10;35.13;;;;;;;4.11;100.00;100642.47;5068632;28;20036;-73
2023/02/24 01:09:37;;;;;;;75.43;37.85;;;;;;;4.07;100.00;100638.44;5066188;28;20024;-73
2023/02/24 01:12:37;;;;;;;74.38;36.75;;;;;;;4.06;100.00;100636.78;5049568;28;20035;-73
2023/02/24 01:15:03;;;;;;;67.10;35.88;;;;;;;4.09;100.00;100635.75;5050049;28;20048;-73
2023/02/24 01:17:30;;;;;;;75.05;38.90;;;;;;;4.07;100.00;100625.53;5062038;28;20373;-73
2023/02/24 01:19:59;;;;;;;72.55;36.80;;;;;;;4.04;100.00;100628.31;5062072;28;20123;-73
2023/02/24 01:22:25;;;;;;;70.15;36.83;;;;;;;4.07;100.00;100622.13;5068651;28;20040;-73
2023/02/24 01:24:51;;;;;;;73.72;37.40;;;;;;;4.07;100.00;100627.28;5065623;28;20368;-73
2023/02/24 01:27:18;;;;;;;63.97;34.70;;;;;;;4.07;100.00;100622.97;5068927;28;20024;-72
2023/02/24 01:29:48;;;;;;;71.97;36.08;;;;;;;4.08;100.00;100618.63;5067519;28;20472;-73
2023/02/24 01:32:19;;;;;;;75.40;37.80;;;;;;;4.11;100.00;100618.44;5071797;28;20132;-73
2023/02/24 01:34:45;;;;;;;98.18;43.42;;;;;;;4.36;100.00;100612.47;5051852;28;20709;-73
2023/02/24 01:37:20;;;;;;;93.75;43.03;;;;;;;4.63;100.00;100610.66;5067007;28;20032;-73
2023/02/24 01:39:58;;;;;;;97.90;41.60;;;;;;;4.90;100.00;100608.78;5065826;28;20056;-73
2023/02/24 01:42:24;;;;;;;97.88;41.00;;;;;;;5.05;100.00;100612.06;5053447;28;20122;-73
2023/02/24 01:44:50;;;;;;;85.30;41.63;;;;;;;5.25;100.00;100608.91;5071309;28;20040;-73
2023/02/24 01:47:21;;;;;;;87.88;40.03;;;;;;;5.36;100.00;100605.59;5069359;28;20099;-73
2023/02/24 01:49:51;;;;;;;80.32;39.28;;;;;;;5.37;100.00;100601.25;5056966;28;20033;-73
2023/02/24 01:52:33;;;;;;;77.18;38.15;;;;;;;5.36;100.00;100597.00;5063383;28;20483;-73
2023/02/24 01:55:13;;;;;;;77.82;38.35;;;;;;;5.21;100.00;100596.31;5073102;28;20087;-73
2023/02/24 01:57:40;;;;;;;80.13;37.17;;;;;;;5.12;100.00;100586.66;5054339;28;20036;-73
2023/02/24 02:00:31;;;;;;;74.85;37.22;;;;;;;5.07;100.00;100588.72;5068149;28;20032;-73
2023/02/24 02:02:56;;;;;;;76.90;37.45;;;;;;;5.00;100.00;100583.97;5071846;28;20051;-73
2023/02/24 02:05:21;;;;;;;72.45;37.78;;;;;;;4.98;100.00;100585.84;5069732;28;20075;-73
2023/02/24 02:07:48;;;;;;;73.72;37.55;;;;;;;4.92;100.00;100585.44;5065002;28;20110;-73
2023/02/24 02:10:15;;;;;;;73.20;36.05;;;;;;;4.87;100.00;100583.16;5064698;28;20029;-73
2023/02/24 02:12:43;;;;;;;74.20;36.42;;;;;;;4.80;100.00;100581.94;5064381;28;20120;-73
2023/02/24 02:15:12;;;;;;;71.82;35.83;;;;;;;4.65;100.00;100578.66;5069493;28;20119;-73
2023/02/24 02:18:01;;;;;;;70.53;36.45;;;;;;;4.51;100.00;100580.50;5074846;28;20040;-73
2023/02/24 02:20:42;;;;;;;66.68;36.92;;;;;;;4.44;100.00;100579.25;5071963;28;20395;-73
2023/02/24 02:23:49;;;;;;;75.43;36.22;;;;;;;4.36;100.00;100577.19;5069339;28;20032;-73
2023/02/24 02:26:39;;;;;;;73.93;35.60;;;;;;;4.29;100.00;100574.19;5067448;28;20119;-73
2023/02/24 02:29:50;;;;;;;82.85;36.80;;;;;;;4.33;100.00;100579.97;5063743;28;20317;-73
2023/02/24 02:32:30;;;;;;;76.25;35.28;;;;;;;4.38;100.00;100575.34;5067298;28;20049;-73
2023/02/24 02:35:11;;;;;;;76.15;35.55;;;;;;;4.44;100.00;100579.25;5066112;28;20036;-73
2023/02/24 02:38:02;;;;;;;75.05;35.70;;;;;;;4.44;100.00;100574.94;5065537;28;20412;-73
2023/02/24 02:40:36;;;;;;;76.57;36.95;;;;;;;4.42;100.00;100574.19;5064461;28;20134;-73
2023/02/24 02:43:09;;;;;;;73.93;36.67;;;;;;;4.40;100.00;100573.47;5061535;28;20040;-73
2023/02/24 02:45:39;;;;;;;75.80;35.55;;;;;;;4.40;100.00;100568.31;5066884;28;20047;-73
2023/02/24 02:48:30;;;;;;;74.72;37.85;;;;;;;4.44;100.00;100579.25;5061746;28;20032;-73
2023/02/24 02:51:06;;;;;;;71.95;37.90;;;;;;;4.44;100.00;100574.09;5065651;28;20044;-73
2023/02/24 02:53:46;;;;;;;74.95;37.22;;;;;;;4.45;100.00;100563.69;5054485;28;20032;-73
2023/02/24 02:56:18;;;;;;;69.35;35.88;;;;;;;4.50;100.00;100563.38;5067878;28;20036;-73
2023/02/24 02:58:52;;;;;;;62.60;34.95;;;;;;;4.40;100.00;100567.50;5069323;28;20463;-73
2023/02/24 03:01:21;;;;;;;79.05;37.58;;;;;;;4.51;100.00;100554.69;5059366;28;20132;-73
2023/02/24 03:03:52;;;;;;;72.93;36.85;;;;;;;4.60;100.00;100564.41;5064851;28;20430;-73
2023/02/24 03:06:29;;;;;;;76.03;37.97;;;;;;;4.64;100.00;100555.53;5072494;28;20099;-73
2023/02/24 03:09:16;;;;;;;66.15;34.03;;;;;;;4.52;100.00;100551.19;5068105;28;20036;-73
2023/02/24 03:11:48;;;;;;;66.97;33.70;;;;;;;4.40;100.00;100549.44;5067935;28;20044;-74
2023/02/24 03:14:18;;;;;;;71.07;34.40;;;;;;;4.47;100.00;100545.50;5063560;28;20455;-73
2023/02/24 03:16:50;;;;;;;73.78;35.22;;;;;;;4.50;100.00;100547.88;5062944;28;20024;-73
2023/02/24 03:19:19;;;;;;;66.63;34.72;;;;;;;4.63;100.00;100544.38;5066907;28;20036;-73
2023/02/24 03:22:09;;;;;;;68.07;34.00;;;;;;;4.50;100.00;100542.72;5053954;28;20105;-73
2023/02/24 03:24:41;;;;;;;68.07;34.55;;;;;;;4.25;100.00;100543.56;5060562;28;20044;-73
2023/02/24 03:27:12;;;;;;;66.65;33.83;;;;;;;4.17;100.00;100546.66;5072923;28;20036;-73
2023/02/24 03:29:41;;;;;;;72.05;33.58;;;;;;;4.09;100.00;100548.91;5068387;28;20444;-73
2023/02/24 03:32:14;;;;;;;72.20;36.67;;;;;;;4.00;100.00;100546.94;5053015;28;20138;-73
2023/02/24 03:35:03;;;;;;;83.43;39.33;;;;;;;3.92;100.00;100542.28;5048969;28;20464;-73
2023/02/24 03:37:32;;;;;;;78.28;37.03;;;;;;;3.81;100.00;100542.13;5069775;28;20451;-73
2023/02/24 03:40:06;;;;;;;80.00;39.40;;;;;;;3.84;100.00;100541.94;5063131;28;20056;-73
2023/02/24 03:42:33;;;;;;;83.50;40.35;;;;;;;3.97;100.00;100545.38;5053333;28;20340;-73
2023/02/24 03:45:00;;;;;;;84.90;37.95;;;;;;;4.01;100.00;100543.41;5047858;28;20032;-73
2023/02/24 03:47:26;;;;;;;79.57;38.70;;;;;;;3.96;100.00;100538.56;5069047;28;20042;-73
2023/02/24 03:49:52;;;;;;;78.82;38.97;;;;;;;3.90;100.00;100538.13;5067721;28;20029;-73
2023/02/24 03:52:45;;;;;;;80.75;37.40;;;;;;;3.84;100.00;100529.06;5063569;28;20461;-73
2023/02/24 03:55:29;;;;;;;75.38;35.75;;;;;;;3.80;100.00;100530.19;5064238;28;20040;-73
2023/02/24 03:58:07;;;;;;;72.65;34.97;;;;;;;3.77;100.00;100529.56;5067324;28;20050;-73
2023/02/24 04:00:39;;;;;;;76.55;37.08;;;;;;;3.76;100.00;100531.31;5068461;28;20444;-73
2023/02/24 04:03:33;;;;;;;77.15;37.67;;;;;;;3.76;100.00;100539.06;5067589;28;20040;-73
2023/02/24 04:06:40;;;;;;;71.30;35.58;;;;;;;3.81;100.00;100534.41;5067379;28;20043;-73
2023/02/24 04:09:14;;;;;;;;;;;;;;;3.87;100.00;100535.75;5065885;28;20033;-73
2023/02/24 04:11:44;;;;;;;87.25;38.65;;;;;;;3.93;100.00;100531.03;5067426;28;19916;-73
2023/02/24 04:14:23;;;;;;;87.95;40.22;;;;;;;4.06;100.00;100530.22;5067759;28;20519;-73
2023/02/24 04:17:12;;;;;;;82.28;39.13;;;;;;;4.13;100.00;100528.91;5068728;28;20033;-73
2023/02/24 04:19:41;;;;;;;80.13;38.72;;;;;;;4.08;100.00;100526.63;5065437;28;20036;-73
2023/02/24 04:22:11;;;;;;;88.97;40.25;;;;;;;4.11;100.00;100530.75;5044977;28;20055;-73
2023/02/24 04:24:41;;;;;;;92.88;41.20;;;;;;;4.24;100.00;100527.28;5065383;28;20071;-73
2023/02/24 04:27:10;;;;;;;85.57;42.17;;;;;;;4.30;100.00;100516.50;5044616;28;20037;-73
2023/02/24 04:29:46;;;;;;;85.68;40.17;;;;;;;4.40;100.00;100521.88;5067714;28;20036;-73
2023/02/24 04:32:13;;;;;;;;;;;;;;;4.51;100.00;100522.00;5044086;28;20088;-73
2023/02/24 04:34:39;;;;;;;84.15;40.80;;;;;;;4.68;100.00;100515.69;5069737;28;19913;-73
2023/02/24 04:37:05;;;;;;;83.15;40.20;;;;;;;4.86;100.00;100509.22;5061165;28;20032;-73
2023/02/24 04:39:31;;;;;;;87.35;39.88;;;;;;;4.98;100.00;100508.38;5069073;28;20040;-73
2023/02/24 04:41:57;;;;;;;78.85;39.17;;;;;;;4.99;100.00;100514.38;5059813;28;20413;-73
2023/02/24 04:44:25;;;;;;;77.43;40.25;;;;;;;4.92;100.00;100511.38;5061050;28;20102;-73
2023/02/24 04:46:50;;;;;;;80.57;41.08;;;;;;;4.81;100.00;100506.13;5046474;28;20040;-73
2023/02/24 04:49:17;;;;;;;85.93;44.33;;;;;;;4.74;100.00;100494.59;5075377;28;20040;-73
2023/02/24 04:51:44;;;;;;;88.15;46.38;;;;;;;4.74;100.00;100498.91;5063182;28;20037;-74
2023/02/24 04:54:16;;;;;;;94.93;45.25;;;;;;;4.75;100.00;100501.41;5069726;28;20169;-73
2023/02/24 04:56:46;;;;;;;97.50;47.67;;;;;;;4.74;100.00;100504.91;5065246;28;20033;-73
2023/02/24 04:59:13;;;;;;;88.90;44.80;;;;;;;4.76;100.00;100503.03;5067543;28;20032;-73
2023/02/24 05:01:42;;;;;;;87.70;43.50;;;;;;;4.81;100.00;100498.38;5062713;28;20029;-73
2023/02/24 05:04:09;;;;;;;85.53;43.58;;;;;;;4.87;100.00;100494.56;5069002;28;20131;-73
2023/02/24 05:06:39;;;;;;;81.03;43.60;;;;;;;4.95;100.00;100493.09;5073097;28;20119;-73
2023/02/24 05:09:28;;;;;;;81.78;42.83;;;;;;;5.02;100.00;100484.91;5070305;28;20058;-73
2023/02/24 05:11:56;;;;;;;79.78;40.22;;;;;;;5.09;100.00;100483.56;5067716;28;20028;-73
2023/02/24 05:14:23;;;;;;;88.30;42.53;;;;;;;5.11;100.00;100477.34;5073554;28;20105;-73
2023/02/24 05:16:49;;;;;;;77.03;39.97;;;;;;;5.12;100.00;100479.00;5070550;28;20033;-74
2023/02/24 05:22:03;;;;;;;76.90;39.88;;;;;;;5.17;100.00;100489.81;5062105;28;20095;-74
2023/02/24 05:24:30;;;;;;;79.13;39.05;;;;;;;5.22;100.00;100484.31;5043801;28;20040;-73
2023/02/24 05:26:58;;;;;;;75.85;39.83;;;;;;;5.26;100.00;100483.16;5070339;28;20033;-73
2023/02/24 05:29:26;;;;;;;74.22;40.47;;;;;;;5.30;100.00;100487.16;5065292;28;20033;-73
2023/02/24 05:31:59;;;;;;;78.80;40.03;;;;;;;5.35;100.00;100474.75;5068167;28;20080;-73
2023/02/24 05:34:26;;;;;;;82.55;39.95;;;;;;;5.37;100.00;100477.22;5069163;28;20033;-73
2023/02/24 05:36:53;;;;;;;79.95;40.40;;;;;;;5.49;100.00;100477.16;5052667;28;20043;-73
2023/02/24 05:39:20;;;;;;;91.97;39.15;;;;;;;5.55;100.00;100479.31;5069726;28;20474;-73
2023/02/24 05:41:48;;;;;;;88.28;39.45;;;;;;;5.79;100.00;100476.66;5049264;28;20060;-73
2023/02/24 05:44:21;;;;;;;87.82;41.13;;;;;;;6.03;100.00;100466.28;5072726;28;20220;-73
2023/02/24 05:46:49;;;;;;;79.35;39.63;;;;;;;6.13;100.00;100469.84;5067578;28;20075;-73
2023/02/24 05:49:25;;;;;;;79.47;39.45;;;;;;;6.21;100.00;100464.06;5070467;28;20430;-73
2023/02/24 05:51:54;;;;;;;80.75;39.65;;;;;;;6.26;100.00;100467.94;5053528;28;20506;-73
2023/02/24 05:54:31;;;;;;;86.00;40.03;;;;;;;6.31;100.00;100468.41;5062136;28;20036;-73
2023/02/24 05:57:03;;;;;;;80.78;39.38;;;;;;;6.37;100.00;100466.31;5069083;28;20063;-73
2023/02/24 05:59:31;;;;;;;84.45;39.17;;;;;;;6.39;100.00;100473.00;5065038;28;20039;-73
2023/02/24 06:02:05;;;;;;;81.28;38.35;;;;;;;6.42;100.00;100472.78;5068988;28;20693;-73
2023/02/24 06:04:45;;;;;;;77.95;39.65;;;;;;;6.38;100.00;100473.97;5064400;28;20028;-73
2023/02/24 06:07:19;;;;;;;75.68;37.65;;;;;;;6.30;100.00;100476.28;5070857;28;20547;-72
2023/02/24 06:09:56;;;;;;;71.85;36.42;;;;;;;6.24;100.00;100469.81;5052399;28;20143;-73
2023/02/24 06:12:32;;;;;;;68.50;35.28;;;;;;;6.17;100.00;100468.63;5063018;28;20041;-73
2023/02/24 06:14:58;;;;;;;70.22;36.53;;;;;;;6.16;100.00;100474.75;5063950;28;20025;-73
2023/02/24 06:17:25;;;;;;;68.40;37.33;;;;;;;6.16;100.00;100477.34;5062985;28;20032;-73
2023/02/24 06:19:52;;;;;;;81.22;44.03;;;;;;;6.15;100.00;100480.03;5065556;28;20055;-73
2023/02/24 06:22:21;;;;;;;82.07;43.00;;;;;;;6.15;100.00;100486.03;5064797;28;20028;-73
2023/02/24 06:24:48;;;;;;;79.43;41.40;;;;;;;6.15;100.00;100490.38;5076367;28;20036;-74
2023/02/24 06:27:17;;;;;;;70.00;38.95;;;;;;;6.15;100.00;100493.81;5066402;28;20104;-73
2023/02/24 06:29:49;;;;;;;78.80;38.95;;;;;;;6.16;100.00;100503.22;5063315;28;20134;-73
2023/02/24 06:32:19;;;;;;;76.43;38.10;;;;;;;6.16;100.00;100507.56;5067216;28;20049;-74
2023/02/24 06:34:45;;;;;;;85.05;40.42;;;;;;;6.16;100.00;100502.38;5070107;28;20091;-73
2023/02/24 06:37:13;;;;;;;102.38;51.08;;;;;;;6.15;100.00;100504.16;5068679;28;20476;-73
2023/02/24 06:39:39;;;;;;;80.85;40.85;;;;;;;6.12;100.00;100496.66;5068192;28;20032;-74
2023/02/24 06:42:07;;;;;;;85.82;41.03;;;;;;;6.14;100.00;100499.13;5069017;28;20070;-74
2023/02/24 06:44:37;;;;;;;85.63;40.47;;;;;;;6.19;100.00;100504.75;5068559;28;20020;-74
2023/02/24 06:47:05;;;;;;;86.57;40.60;;;;;;;6.21;100.00;100501.09;5070580;28;20094;-73
2023/02/24 06:49:31;;;;;;;91.72;43.65;;;;;;;6.25;100.00;100494.75;5039750;28;20052;-74
2023/02/24 06:51:58;;;;;;;82.45;41.30;;;;;;;6.24;100.00;100490.53;5067499;28;20033;-74
2023/02/24 06:54:29;;;;;;;81.00;41.03;;;;;;;6.27;100.00;100490.28;5068295;28;20082;-74
2023/02/24 06:56:57;;;;;;;81.50;40.90;;;;;;;6.36;100.00;100498.31;5068273;28;20139;-74
2023/02/24 06:59:27;;;;;;;78.53;38.40;;;;;;;6.43;100.00;100494.31;5067160;28;20032;-74
2023/02/24 07:01:54;;;;;;;75.20;38.40;;;;;;;6.50;100.00;100485.97;5066164;28;20036;-74
2023/02/24 07:04:19;;;;;;;81.53;37.58;;;;;;;6.57;100.00;100481.13;5070694;28;20037;-73
2023/02/24 07:06:51;;;;;;;81.90;38.65;;;;;;;6.62;100.00;100477.22;5069921;28;20409;-74
2023/02/24 07:09:19;;;;;;;81.30;39.50;;;;;;;6.71;100.00;100472.28;5057624;28;20494;-74
2023/02/24 07:11:50;;;;;;;81.72;40.25;;;;;;;6.75;100.00;100479.69;5071895;28;20075;-74
2023/02/24 07:14:19;;;;;;;86.88;40.90;;;;;;;6.79;100.00;100481.09;5048798;28;20435;-74
2023/02/24 07:16:45;;;;;;;78.85;40.28;;;;;;;6.85;100.00;100487.56;5070595;28;20376;-74
2023/02/24 07:19:14;;;;;;;79.85;39.47;;;;;;;6.90;100.00;100485.44;5067114;28;20036;-73
2023/02/24 07:21:48;;;;;;;77.65;41.80;;;;;;;6.96;100.00;100492.75;5064269;28;20028;-73
2023/02/24 07:27:21;;;;;;;77.38;38.88;;;;;;;6.95;100.00;100491.91;5047566;28;20124;-73
2023/02/24 07:29:51;;;;;;;69.32;36.17;;;;;;;6.96;100.00;100488.38;5063108;28;20483;-72
2023/02/24 07:32:21;;;;;;;70.25;38.92;;;;;;;7.00;100.00;100486.38;5064834;28;20076;-72
2023/02/24 07:34:46;;;;;;;73.47;37.55;;;;;;;7.03;100.00;100486.13;5059837;28;20044;-73
2023/02/24 07:37:13;;;;;;;76.28;39.20;;;;;;;7.02;100.00;100486.25;5062300;28;20044;-72
2023/02/24 07:39:41;;;;;;;72.45;38.70;;;;;;;7.04;100.00;100487.78;5055146;28;20025;-73
2023/02/24 07:42:09;;;;;;;71.13;37.95;;;;;;;7.08;100.00;100483.19;5059429;28;20090;-72
2023/02/24 07:44:35;;;;;;;74.03;38.22;;;;;;;7.13;100.00;100483.63;5056464;28;20541;-73
2023/02/24 07:47:06;;;;;;;73.10;37.40;;;;;;;7.17;100.00;100485.03;5058935;28;20029;-73
2023/02/24 07:49:32;;;;;;;80.82;37.90;;;;;;;7.19;100.00;100478.78;5069125;28;20141;-72
2023/02/24 07:51:58;;;;;;;78.30;39.15;;;;;;;7.23;100.00;100479.34;5063751;28;20036;-72
2023/02/24 07:54:28;;;;;;;77.07;39.50;;;;;;;7.25;100.00;100478.28;5057861;28;20364;-73
2023/02/24 07:56:55;;;;;;;75.03;38.50;;;;;;;7.31;100.00;100469.19;5069610;28;20167;-71
2023/02/24 07:59:26;;;;;;;72.18;38.33;;;;;;;7.37;100.00;100471.28;5065600;28;20127;-72
2023/02/24 08:01:54;;;;;;;73.82;38.00;;;;;;;7.50;100.00;100471.97;5070188;28;20033;-73
2023/02/24 08:04:24;;;;;;;69.95;38.80;;;;;;;7.66;100.00;100469.75;5054049;28;20025;-72
2023/02/24 08:06:54;;;;;;;70.95;37.03;;;;;;;7.79;100.00;100471.34;5067311;28;20115;-73
2023/02/24 08:09:45;;;;;;;76.00;39.35;;;;;;;7.94;100.00;100459.69;5060474;28;20032;-72
2023/02/24 08:12:09;;;;;;;75.28;37.83;;;;;;;8.09;100.00;100455.78;5062799;28;20135;-70
2023/02/24 08:14:43;;;;;;;73.93;37.90;;;;;;;8.21;100.00;100453.94;5059436;28;20064;-70
2023/02/24 08:17:10;;;;;;;73.43;39.22;;;;;;;8.30;100.00;100451.41;5059537;28;20039;-72
2023/02/24 08:19:39;;;;;;;74.95;38.13;;;;;;;8.37;100.00;100456.09;5063849;28;20467;-70
2023/02/24 08:22:18;;;;;;;74.18;40.05;;;;;;;8.41;100.00;100463.50;5066440;28;20473;-73
2023/02/24 08:24:52;;;;;;;76.10;42.03;;;;;;;8.37;100.00;100454.34;5066560;28;20114;-73
2023/02/24 08:27:24;;;;;;;76.47;39.85;;;;;;;8.31;100.00;100453.03;5058485;28;20455;-73
2023/02/24 08:29:58;;;;;;;74.47;38.55;;;;;;;8.30;100.00;100450.56;5063563;28;20060;-73
2023/02/24 08:32:35;;;;;;;76.28;40.67;;;;;;;8.36;100.00;100449.28;5045369;28;20434;-70
2023/02/24 08:35:04;;;;;;;71.00;39.28;;;;;;;8.48;100.00;100448.22;5059244;28;20036;-72
2023/02/24 08:37:45;;;;;;;72.72;39.53;;;;;;;8.50;100.00;100446.31;5065394;28;20048;-72
2023/02/24 08:42:58;;;;;;;70.28;40.13;;;;;;;8.57;100.00;100453.44;5072401;28;20040;-72
2023/02/24 08:45:32;;;;;;;71.43;38.97;;;;;;;8.56;100.00;100445.78;5070393;28;20060;-70
2023/02/24 08:48:17;;;;;;;74.68;40.40;;;;;;;8.64;100.00;100440.75;5063450;28;20075;-70
2023/02/24 08:50:47;;;;;;;71.40;38.20;;;;;;;8.85;100.00;100445.88;5049947;28;20028;-70
2023/02/24 08:53:17;;;;;;;72.10;37.90;;;;;;;8.97;100.00;100448.22;5062761;28;20076;-70
2023/02/24 08:55:44;;;;;;;72.85;39.40;;;;;;;8.99;100.00;100450.66;5067493;28;20792;-70
2023/02/24 08:58:16;;;;;;;74.43;38.67;;;;;;;8.83;100.00;100448.59;5064564;28;20534;-70
2023/02/24 09:00:52;;;;;;;74.55;38.90;;;;;;;8.79;100.00;100452.41;5070812;28;20128;-70
2023/02/24 09:03:28;;;;;;;70.32;39.13;;;;;;;8.78;100.00;100449.94;5064505;28;20498;-70
2023/02/24 09:05:57;;;;;;;72.32;38.95;;;;;;;8.74;100.00;100443.38;5074706;28;20036;-70
2023/02/24 09:08:23;;;;;;;71.05;37.58;;;;;;;8.76;100.00;100441.47;5061217;28;20043;-70
2023/02/24 09:10:49;;;;;;;74.00;36.22;;;;;;;8.79;100.00;100444.63;5066187;28;20044;-71
2023/02/24 09:13:15;;;;;;;70.90;37.40;;;;;;;8.86;100.00;100440.53;5069274;28;20037;-72
2023/02/24 09:15:43;;;;;;;70.15;38.58;;;;;;;9.02;100.00;100446.97;5069442;28;20025;-72
2023/02/24 09:18:13;;;;;;;71.05;37.55;;;;;;;9.12;100.00;100448.63;5045513;28;20435;-72
2023/02/24 09:21:14;;;;;;;70.80;37.85;;;;;;;9.17;100.00;100451.63;5061366;28;20032;-72
2023/02/24 09:23:46;;;;;;;68.53;36.30;;;;;;;9.12;100.00;100450.41;5069221;28;20036;-72
2023/02/24 09:26:12;;;;;;;67.53;34.75;;;;;;;9.10;100.00;100449.72;5066989;28;20071;-72
2023/02/24 09:28:53;;;;;;;74.82;37.88;;;;;;;9.15;100.00;100450.13;5066337;28;20025;-69
2023/02/24 09:31:22;;;;;;;69.15;36.72;;;;;;;9.18;100.00;100444.66;5064700;28;20048;-69
2023/02/24 09:33:49;;;;;;;73.20;38.38;;;;;;;9.12;100.00;100437.41;5068596;28;20051;-71
2023/02/24 09:36:26;;;;;;;75.13;38.92;;;;;;;9.09;100.00;100435.06;5057127;28;20041;-71
2023/02/24 09:41:52;;;;;;;70.95;36.35;;;;;;;9.36;100.00;100437.84;5069130;28;20037;-72
2023/02/24 09:44:19;;;;;;;69.00;37.70;;;;;;;9.36;100.00;100442.22;5064729;28;20438;-72
2023/02/24 09:46:53;;;;;;;68.43;36.17;;;;;;;9.26;100.00;100442.22;5066780;28;20491;-72
2023/02/24 09:49:25;;;;;;;70.65;38.78;;;;;;;9.18;100.00;100435.09;5059214;28;20116;-72
2023/02/24 09:51:59;;;;;;;64.55;36.90;;;;;;;9.19;100.00;100433.31;5071251;28;20036;-72
2023/02/24 09:54:30;;;;;;;62.42;36.25;;;;;;;9.27;100.00;100438.66;5066994;28;20020;-72
2023/02/24 09:57:09;;;;;;;65.22;37.03;;;;;;;9.24;100.00;100442.34;5070683;28;20923;-72
2023/02/24 10:00:23;;;;;;;64.32;35.28;;;;;;;9.16;100.00;100443.97;5067160;28;20037;-72
2023/02/24 10:02:58;;;;;;;70.50;35.95;;;;;;;9.18;100.00;100447.25;5071641;28;20068;-72
2023/02/24 10:05:53;;;;;;;73.95;36.60;;;;;;;9.15;100.00;100442.34;5068000;28;20044;-72
2023/02/24 10:08:24;;;;;;;70.43;37.00;;;;;;;9.11;100.00;100446.97;5072516;28;20032;-72
2023/02/24 10:11:05;;;;;;;76.13;38.47;;;;;;;9.16;100.00;100434.41;5071848;28;20150;-72
2023/02/24 10:13:56;;;;;;;65.05;36.85;;;;;;;9.22;100.00;100433.84;5071608;28;20040;-72
2023/02/24 10:16:23;;;;;;;63.65;35.15;;;;;;;9.35;100.00;100433.59;5060852;28;20509;-71
2023/02/24 10:19:15;;;;;;;60.38;34.28;;;;;;;9.46;100.00;100428.22;5066743;28;20034;-72
2023/02/24 10:21:59;;;;;;;57.75;32.40;;;;;;;9.64;100.00;100423.16;5057073;28;20040;-71
2023/02/24 10:25:00;;;;;;;57.92;34.03;;;;;;;9.80;100.00;100419.97;5062325;28;20032;-72
2023/02/24 10:27:40;;;;;;;54.25;31.08;;;;;;;9.84;100.00;100421.34;5071448;28;20039;-72
2023/02/24 10:30:40;;;;;;;54.92;31.77;;;;;;;9.83;100.00;100417.91;5059994;28;20060;-72
2023/02/24 10:33:28;;;;;;;53.20;31.65;;;;;;;9.86;100.00;100414.22;5074604;28;20036;-72
2023/02/24 10:36:10;;;;;;;50.00;29.95;;;;;;;9.87;100.00;100406.25;5059639;28;20106;-72
2023/02/24 10:38:39;;;;;;;45.80;30.92;;;;;;;9.90;100.00;100407.78;5071650;28;20508;-72
2023/02/24 10:41:09;;;;;;;51.67;29.25;;;;;;;10.01;100.00;100394.56;5065952;28;20058;-72
2023/02/24 10:43:44;;;;;;;44.65;29.35;;;;;;;10.10;100.00;100393.72;5067317;28;20119;-72
2023/02/24 10:46:35;;;;;;;45.40;28.52;;;;;;;10.16;100.00;100393.13;5071639;28;20111;-72
2023/02/24 10:49:08;;;;;;;47.72;28.80;;;;;;;10.10;100.00;100395.50;5071213;28;20439;-72
2023/02/24 10:51:39;;;;;;;43.47;27.50;;;;;;;10.12;100.00;100386.56;5071378;28;20039;-72
2023/02/24 10:54:43;;;;;;;52.58;30.83;;;;;;;10.10;100.00;100380.69;5064350;28;20036;-72
2023/02/24 10:57:17;;;;;;;45.65;27.98;;;;;;;10.05;100.00;100382.06;5071283;28;20147;-72
2023/02/24 11:03:05;;;;;;;46.35;27.80;;;;;;;10.09;100.00;100383.44;5048936;28;20047;-72
2023/02/24 11:05:42;;;;;;;41.90;28.38;;;;;;;10.11;100.00;100377.13;5066937;28;20071;-72
2023/02/24 11:08:35;;;;;;;45.33;28.80;;;;;;;10.16;100.00;100367.09;5068261;28;20128;-71
2023/02/24 11:11:05;;;;;;;44.50;28.80;;;;;;;10.24;100.00;100362.03;5070411;28;20044;-69
2023/02/24 11:19:00;;;;;;;46.47;27.75;;;;;;;10.56;100.00;100358.97;5070800;28;20079;-69
2023/02/24 11:21:27;;;;;;;41.17;26.27;;;;;;;10.57;100.00;100359.78;5071056;28;20136;-69
2023/02/24 11:23:58;;;;;;;43.38;28.48;;;;;;;10.61;100.00;100356.72;5060180;28;20369;-69
2023/02/24 11:26:35;;;;;;;47.63;29.33;;;;;;;10.51;100.00;100353.38;5057438;28;20051;-69
2023/02/24 11:29:22;;;;;;;50.03;30.33;;;;;;;10.46;100.00;100349.56;5067719;28;20111;-69
2023/02/24 11:32:19;;;;;;;52.70;29.58;;;;;;;10.32;100.00;100337.06;5068197;28;20117;-69
2023/02/24 11:34:54;;;;;;;50.67;31.63;;;;;;;10.30;100.00;100338.00;5060676;28;20115;-69
2023/02/24 11:37:41;;;;;;;46.97;30.70;;;;;;;10.35;100.00;100328.94;5070810;28;20045;-70
2023/02/24 11:40:15;;;;;;;48.97;29.55;;;;;;;10.37;100.00;100327.84;5070498;28;20017;-69
2023/02/24 11:42:51;;;;;;;50.58;31.60;;;;;;;10.41;100.00;100318.75;5067610;28;20043;-69
2023/02/24 11:45:29;;;;;;;47.42;29.75;;;;;;;10.46;100.00;100321.72;5068303;28;20108;-69
2023/02/24 11:48:01;;;;;;;50.72;30.50;;;;;;;10.43;100.00;100316.81;5069895;28;20039;-69
2023/02/24 11:50:39;;;;;;;45.95;30.63;;;;;;;10.54;100.00;100307.97;5066393;28;20035;-69
2023/02/24 11:53:31;;;;;;;48.45;29.35;;;;;;;10.58;100.00;100309.31;5063056;28;20029;-69
2023/02/24 11:56:03;;;;;;;44.28;28.33;;;;;;;10.62;100.00;100298.44;5070029;28;20514;-69
2023/02/24 11:58:40;;;;;;;45.83;28.45;;;;;;;10.69;100.00;100303.88;5070788;28;20044;-69